Time;durP1;ratioP1;P1;durP2;ratioP2;P2;SDS_P1;SDS_P2;PMS_P1;PMS_P2;Temp;Humidity;BMP_temperature;BMP_pressure;BME280_temperature;BME280_humidity;BME280_pressure;Samples;Min_cycle;Max_cycle;Signal;HPM_P1;HPM_P2
2022/11/28 00:01:37;;;;;;;40.60;30.93;;;1.30;99.90;;;;;;5153627;27;20208;-79
2022/11/28 00:04:08;;;;;;;39.37;29.57;;;1.30;99.90;;;;;;5155830;27;20208;-81
2022/11/28 00:06:38;;;;;;;39.43;30.80;;;1.30;99.90;;;;;;5157734;27;20279;-76
2022/11/28 00:09:08;;;;;;;39.47;29.90;;;1.30;99.90;;;;;;5154706;27;20232;-74
2022/11/28 00:11:36;;;;;;;37.30;28.77;;;1.30;99.90;;;;;;5158109;27;20219;-77
2022/11/28 00:14:04;;;;;;;40.97;29.80;;;1.20;99.90;;;;;;5157279;27;20450;-76
2022/11/28 00:16:32;;;;;;;39.47;29.83;;;1.30;99.90;;;;;;5157594;27;20216;-81
2022/11/28 00:19:02;;;;;;;37.03;29.00;;;1.20;99.90;;;;;;5155275;27;20201;-75
2022/11/28 00:21:31;;;;;;;41.57;29.43;;;1.30;99.90;;;;;;5157366;27;20201;-77
2022/11/28 00:24:01;;;;;;;36.43;28.70;;;1.30;99.90;;;;;;5157373;27;20316;-77
2022/11/28 00:26:31;;;;;;;38.23;29.47;;;1.30;99.90;;;;;;5155041;27;20215;-75
2022/11/28 00:29:00;;;;;;;41.13;28.97;;;1.30;99.90;;;;;;5157210;27;20227;-78
2022/11/28 00:31:30;;;;;;;40.27;29.43;;;1.30;99.90;;;;;;5157103;27;20234;-76
2022/11/28 00:34:00;;;;;;;38.70;29.07;;;1.30;99.90;;;;;;5153559;27;20241;-73
2022/11/28 00:36:30;;;;;;;39.67;29.90;;;1.30;99.90;;;;;;5136885;27;20245;-74
2022/11/28 00:38:58;;;;;;;37.73;30.27;;;1.30;99.90;;;;;;5138551;27;20272;-76
2022/11/28 00:41:29;;;;;;;41.47;30.37;;;1.20;99.90;;;;;;5150367;27;20217;-75
2022/11/28 00:43:58;;;;;;;42.53;32.47;;;1.20;99.90;;;;;;5146151;27;20241;-76
2022/11/28 00:46:26;;;;;;;41.47;31.47;;;1.30;99.90;;;;;;5140676;27;20435;-76
2022/11/28 00:48:54;;;;;;;41.63;30.30;;;1.30;99.90;;;;;;5139025;27;20213;-78
2022/11/28 00:51:25;;;;;;;40.30;30.13;;;1.30;99.90;;;;;;5137262;27;20656;-73
2022/11/28 00:53:56;;;;;;;36.90;29.50;;;1.30;99.90;;;;;;5116922;28;20796;-76
2022/11/28 00:56:27;;;;;;;33.87;27.07;;;1.30;99.90;;;;;;5116164;28;20561;-77
2022/11/28 00:58:56;;;;;;;32.43;26.10;;;1.30;99.90;;;;;;5116473;28;20224;-78
2022/11/28 01:01:26;;;;;;;32.30;26.00;;;1.30;99.90;;;;;;5146409;27;20201;-77
2022/11/28 01:03:57;;;;;;;33.43;25.03;;;1.30;99.90;;;;;;5157065;27;20251;-76
2022/11/28 01:06:28;;;;;;;29.27;24.53;;;1.30;99.90;;;;;;5155047;27;20610;-81
2022/11/28 01:08:59;;;;;;;27.80;23.87;;;1.40;99.90;;;;;;5149537;27;20208;-79
2022/11/28 01:11:27;;;;;;;28.27;23.93;;;1.30;99.90;;;;;;5153816;27;20264;-78
2022/11/28 01:13:57;;;;;;;26.63;21.13;;;1.30;99.90;;;;;;5136353;27;20678;-80
2022/11/28 01:16:25;;;;;;;25.00;21.07;;;1.30;99.90;;;;;;5135566;27;20213;-79
2022/11/28 01:18:53;;;;;;;25.33;21.53;;;1.30;99.90;;;;;;5145646;27;20220;-79
2022/11/28 01:21:22;;;;;;;25.97;21.90;;;1.30;99.90;;;;;;5157581;27;20204;-80
2022/11/28 01:23:50;;;;;;;26.63;21.53;;;1.30;99.90;;;;;;5154107;27;20228;-79
2022/11/28 01:26:22;;;;;;;25.13;20.53;;;1.20;99.90;;;;;;5156450;27;20204;-81
2022/11/28 01:28:50;;;;;;;26.17;21.13;;;1.20;99.90;;;;;;5155618;27;20185;-74
2022/11/28 01:31:20;;;;;;;23.60;19.80;;;1.20;99.90;;;;;;5156183;27;20336;-80
2022/11/28 01:33:49;;;;;;;25.57;20.50;;;1.30;99.90;;;;;;5131317;27;20217;-78
2022/11/28 01:36:19;;;;;;;24.67;20.63;;;1.30;99.90;;;;;;5114943;28;20213;-79
2022/11/28 01:38:48;;;;;;;26.03;21.43;;;1.20;99.90;;;;;;5114927;28;20210;-79
2022/11/28 01:41:21;;;;;;;25.00;21.17;;;1.20;99.90;;;;;;5135031;27;20201;-79
2022/11/28 01:44:06;;;;;;;26.43;20.87;;;1.20;99.90;;;;;;5156823;27;20208;-79
2022/11/28 01:46:36;;;;;;;26.57;21.57;;;1.20;99.90;;;;;;5156880;27;20189;-78
2022/11/28 01:49:09;;;;;;;25.77;20.97;;;1.20;99.90;;;;;;5156337;27;20220;-78
2022/11/28 01:51:40;;;;;;;26.90;21.73;;;1.20;99.90;;;;;;5155865;27;20227;-78
2022/11/28 01:54:08;;;;;;;30.30;21.97;;;1.10;99.90;;;;;;5155430;27;20219;-78
2022/11/28 01:56:43;;;;;;;30.97;22.00;;;1.20;99.90;;;;;;5156594;27;20567;-81
2022/11/28 01:59:14;;;;;;;27.03;21.50;;;1.20;99.90;;;;;;5154257;27;20658;-74
2022/11/28 02:01:43;;;;;;;27.00;22.27;;;1.10;99.90;;;;;;5155909;27;20181;-78
2022/11/28 02:04:13;;;;;;;30.33;22.73;;;1.20;99.90;;;;;;5155589;27;20454;-79
2022/11/28 02:06:42;;;;;;;29.53;23.90;;;1.10;99.90;;;;;;5144860;27;20216;-77
2022/11/28 02:09:12;;;;;;;31.10;23.33;;;1.10;99.90;;;;;;5155075;27;20450;-79
2022/11/28 02:12:01;;;;;;;31.33;23.53;;;1.10;99.90;;;;;;5154675;27;20227;-73
2022/11/28 02:14:49;;;;;;;35.43;25.47;;;1.10;99.90;;;;;;5114248;28;20531;-78
2022/11/28 02:17:30;;;;;;;32.30;25.27;;;1.00;99.90;;;;;;5113993;28;20553;-80
2022/11/28 02:20:37;;;;;;;31.67;24.80;;;1.10;99.90;;;;;;5114565;28;20191;-81
2022/11/28 02:23:12;;;;;;;31.03;24.53;;;1.10;99.90;;;;;;5113369;28;20234;-78
2022/11/28 02:26:16;;;;;;;34.70;26.07;;;1.10;99.90;;;;;;5114185;28;20197;-80
2022/11/28 02:29:03;;;;;;;32.60;25.40;;;1.10;99.90;;;;;;5110797;27;20209;-79
2022/11/28 02:32:01;;;;;;;34.40;26.17;;;1.10;99.90;;;;;;5152553;27;20224;-79
2022/11/28 02:34:35;;;;;;;34.13;25.73;;;1.10;99.90;;;;;;5154774;27;20397;-81
2022/11/28 02:37:08;;;;;;;33.70;26.57;;;1.20;99.90;;;;;;5155076;27;20192;-79
2022/11/28 02:39:46;;;;;;;32.70;24.83;;;1.20;99.90;;;;;;5150960;27;20738;-80
2022/11/28 02:42:20;;;;;;;34.47;26.10;;;1.20;99.90;;;;;;5133654;27;20215;-80
2022/11/28 02:44:58;;;;;;;34.67;25.17;;;1.20;99.90;;;;;;5147975;27;20257;-80
2022/11/28 02:47:32;;;;;;;33.70;24.90;;;1.20;99.90;;;;;;5154981;27;20192;-80
2022/11/28 02:50:08;;;;;;;34.70;25.93;;;1.20;99.90;;;;;;5152653;27;20228;-80
2022/11/28 02:52:41;;;;;;;32.77;24.87;;;1.20;99.90;;;;;;5153445;27;20215;-80
2022/11/28 02:55:10;;;;;;;34.30;26.23;;;1.30;99.90;;;;;;5154481;27;20618;-80
2022/11/28 02:57:40;;;;;;;33.77;25.90;;;1.30;99.90;;;;;;5153984;27;20205;-78
2022/11/28 03:00:28;;;;;;;31.70;25.20;;;1.30;99.90;;;;;;5149998;27;20212;-81
2022/11/28 03:03:24;;;;;;;32.13;24.50;;;1.30;99.90;;;;;;5153567;27;20189;-80
2022/11/28 03:06:00;;;;;;;31.60;25.80;;;1.30;99.90;;;;;;5112755;28;20210;-79
2022/11/28 03:08:40;;;;;;;31.53;24.40;;;1.20;99.90;;;;;;5147980;27;20197;-78
2022/11/28 03:11:15;;;;;;;32.60;25.53;;;1.30;99.90;;;;;;5153785;27;20213;-78
2022/11/28 03:13:57;;;;;;;32.17;25.30;;;1.30;99.90;;;;;;5154309;27;20191;-80
2022/11/28 03:16:29;;;;;;;30.53;24.33;;;1.30;99.90;;;;;;5152383;27;20201;-75
2022/11/28 03:19:05;;;;;;;33.90;25.93;;;1.30;99.90;;;;;;5154178;27;20281;-74
2022/11/28 03:21:40;;;;;;;33.40;26.23;;;1.30;99.90;;;;;;5159414;27;20450;-77
2022/11/28 03:24:15;;;;;;;34.67;25.97;;;1.20;99.90;;;;;;5159629;27;20195;-77
2022/11/28 03:26:52;;;;;;;37.03;26.07;;;1.30;99.90;;;;;;5156867;27;20208;-78
2022/11/28 03:29:25;;;;;;;33.93;26.50;;;1.20;99.90;;;;;;5132793;27;20658;-73
2022/11/28 03:31:56;;;;;;;34.40;26.23;;;1.20;99.90;;;;;;5130811;28;20770;-80
2022/11/28 03:34:30;;;;;;;33.80;26.10;;;1.20;99.90;;;;;;5144606;27;20205;-74
2022/11/28 03:37:03;;;;;;;33.80;25.63;;;1.20;99.90;;;;;;5153588;27;20243;-75
2022/11/28 03:39:37;;;;;;;36.30;26.20;;;1.20;99.90;;;;;;5156488;27;20192;-79
2022/11/28 03:42:10;;;;;;;32.37;25.87;;;1.10;99.90;;;;;;5156036;27;20215;-81
2022/11/28 03:44:46;;;;;;;32.57;25.97;;;1.20;99.90;;;;;;5158468;27;20190;-75
2022/11/28 03:47:15;;;;;;;36.93;26.43;;;1.10;99.90;;;;;;5140024;27;20235;-80
2022/11/28 03:49:47;;;;;;;31.77;24.67;;;1.20;99.90;;;;;;5157486;27;20211;-79
2022/11/28 03:52:25;;;;;;;34.47;26.17;;;1.20;99.90;;;;;;5148272;27;20209;-80
2022/11/28 03:54:56;;;;;;;32.43;24.40;;;1.20;99.90;;;;;;5136692;27;20631;-79
2022/11/28 03:57:33;;;;;;;32.70;25.67;;;1.20;99.90;;;;;;5136850;27;20796;-78
2022/11/28 04:00:06;;;;;;;29.87;23.63;;;1.30;99.90;;;;;;5145275;27;20322;-79
2022/11/28 04:02:38;;;;;;;31.57;24.80;;;1.20;99.90;;;;;;5149007;27;20564;-78
2022/11/28 04:05:17;;;;;;;32.87;24.93;;;1.20;99.90;;;;;;5135832;27;20246;-80
2022/11/28 04:07:52;;;;;;;32.43;23.97;;;1.20;99.90;;;;;;5116380;28;20222;-78
2022/11/28 04:10:27;;;;;;;32.23;24.60;;;1.20;99.90;;;;;;5116433;28;20224;-79
2022/11/28 04:13:01;;;;;;;31.13;23.70;;;1.20;99.90;;;;;;5115850;28;20548;-80
2022/11/28 04:15:37;;;;;;;31.53;23.70;;;1.20;99.90;;;;;;5126749;27;20203;-78
2022/11/28 04:18:15;;;;;;;32.70;23.40;;;1.20;99.90;;;;;;5157601;27;20216;-78
2022/11/28 04:20:49;;;;;;;30.43;24.43;;;1.20;99.90;;;;;;5158118;27;20189;-76
2022/11/28 04:23:21;;;;;;;31.10;24.80;;;1.20;99.90;;;;;;5168817;27;20236;-75
2022/11/28 04:25:54;;;;;;;32.60;25.03;;;1.10;99.90;;;;;;5146335;27;20208;-74
2022/11/28 04:28:25;;;;;;;32.80;25.03;;;1.10;99.90;;;;;;5136980;27;20292;-75
2022/11/28 04:30:56;;;;;;;33.17;25.00;;;1.00;99.90;;;;;;5136751;27;20431;-79
2022/11/28 04:33:26;;;;;;;33.23;25.50;;;1.10;99.90;;;;;;5143846;27;20197;-73
2022/11/28 04:35:56;;;;;;;34.00;25.30;;;1.00;99.90;;;;;;5155308;27;20661;-79
2022/11/28 04:38:29;;;;;;;34.53;26.60;;;1.00;99.90;;;;;;5136490;27;20213;-80
2022/11/28 04:41:03;;;;;;;34.93;26.60;;;1.00;99.90;;;;;;5137460;27;20284;-78
2022/11/28 04:43:34;;;;;;;37.70;27.20;;;1.00;99.90;;;;;;5136826;27;20190;-79
2022/11/28 04:46:10;;;;;;;34.37;26.47;;;1.00;99.90;;;;;;5149670;27;20733;-79
2022/11/28 04:48:38;;;;;;;37.53;27.50;;;1.00;99.90;;;;;;5156871;27;20507;-79
2022/11/28 04:51:17;;;;;;;38.53;27.37;;;1.00;99.90;;;;;;5157256;27;20935;-79
2022/11/28 04:53:54;;;;;;;38.43;27.23;;;1.10;99.90;;;;;;5152783;27;20223;-78
2022/11/28 04:56:28;;;;;;;38.33;27.97;;;1.00;99.90;;;;;;5115412;28;20205;-73
2022/11/28 04:59:03;;;;;;;37.70;26.73;;;1.10;99.90;;;;;;5114736;28;20255;-78
2022/11/28 05:01:32;;;;;;;37.77;27.37;;;1.00;99.90;;;;;;5126893;27;20256;-74
2022/11/28 05:04:03;;;;;;;37.40;27.30;;;1.10;99.90;;;;;;5154579;27;20531;-73
2022/11/28 05:06:33;;;;;;;36.10;27.03;;;1.10;99.90;;;;;;5157240;27;20517;-78
2022/11/28 05:09:03;;;;;;;36.73;27.13;;;1.00;99.90;;;;;;5156786;27;20247;-81
2022/11/28 05:11:32;;;;;;;37.07;27.70;;;1.00;99.90;;;;;;5154483;27;20213;-76
2022/11/28 05:14:00;;;;;;;39.07;28.20;;;1.00;99.90;;;;;;5156480;27;20658;-79
2022/11/28 05:16:28;;;;;;;39.03;28.53;;;1.10;99.90;;;;;;5156961;27;20213;-78
2022/11/28 05:18:56;;;;;;;41.03;28.53;;;1.10;99.90;;;;;;5156603;27;20208;-80
2022/11/28 05:21:25;;;;;;;39.23;28.33;;;1.10;99.90;;;;;;5154631;27;20216;-79
2022/11/28 05:23:53;;;;;;;37.63;28.03;;;1.10;99.90;;;;;;5156240;27;20225;-78
2022/11/28 05:26:22;;;;;;;41.33;28.63;;;1.20;99.90;;;;;;5156133;27;20204;-81
2022/11/28 05:28:51;;;;;;;39.40;27.97;;;1.20;99.90;;;;;;5154079;27;20214;-80
2022/11/28 05:31:21;;;;;;;36.57;27.50;;;1.20;99.90;;;;;;5156177;27;20201;-79
2022/11/28 05:33:49;;;;;;;36.73;27.50;;;1.20;99.90;;;;;;5156357;27;20208;-75
2022/11/28 05:36:18;;;;;;;40.20;29.17;;;1.20;99.90;;;;;;5156615;27;20219;-81
2022/11/28 05:38:46;;;;;;;40.13;28.77;;;1.10;99.90;;;;;;5154236;27;20205;-76
2022/11/28 05:41:19;;;;;;;39.87;28.87;;;1.10;99.90;;;;;;5156726;27;20213;-79
2022/11/28 05:43:49;;;;;;;41.70;29.67;;;1.20;99.90;;;;;;5155417;27;20193;-76
2022/11/28 05:46:18;;;;;;;41.27;28.93;;;1.20;99.90;;;;;;5153758;27;20296;-78
2022/11/28 05:48:46;;;;;;;39.80;28.37;;;1.20;99.90;;;;;;5155906;27;20234;-77
2022/11/28 05:51:15;;;;;;;38.40;28.43;;;1.20;99.90;;;;;;5155487;27;20624;-79
2022/11/28 05:53:43;;;;;;;39.17;27.00;;;1.20;99.90;;;;;;5155225;27;20232;-77
2022/11/28 05:56:13;;;;;;;40.40;28.50;;;1.20;99.90;;;;;;5166744;27;20411;-78
2022/11/28 05:58:41;;;;;;;38.90;28.27;;;1.20;99.90;;;;;;5154194;27;20211;-79
2022/11/28 06:01:15;;;;;;;40.10;28.77;;;1.20;99.90;;;;;;5135008;27;20209;-79
2022/11/28 06:03:44;;;;;;;41.10;29.60;;;1.20;99.90;;;;;;5134551;27;20189;-80
2022/11/28 06:06:13;;;;;;;40.00;28.43;;;1.20;99.90;;;;;;5135487;27;20220;-77
2022/11/28 06:08:42;;;;;;;39.20;28.67;;;1.20;99.90;;;;;;5139682;27;20231;-80
2022/11/28 06:11:11;;;;;;;38.03;28.00;;;1.20;99.90;;;;;;5138719;27;20201;-80
2022/11/28 06:13:39;;;;;;;38.73;27.90;;;1.20;99.90;;;;;;5135140;27;20209;-79
2022/11/28 06:16:08;;;;;;;38.50;27.93;;;1.20;99.90;;;;;;5134607;27;20206;-80
2022/11/28 06:18:38;;;;;;;37.80;27.83;;;1.20;99.90;;;;;;5145053;27;20637;-79
2022/11/28 06:21:08;;;;;;;38.07;26.93;;;1.20;99.90;;;;;;5155253;27;20209;-79
2022/11/28 06:23:37;;;;;;;38.87;28.33;;;1.20;99.90;;;;;;5154515;27;20235;-78
2022/11/28 06:26:06;;;;;;;36.50;27.53;;;1.30;99.90;;;;;;5153427;27;20212;-73
2022/11/28 06:28:35;;;;;;;42.47;29.77;;;1.20;99.90;;;;;;5154980;27;20208;-79
2022/11/28 06:31:03;;;;;;;38.00;28.17;;;1.20;99.90;;;;;;5154707;27;20733;-80
2022/11/28 06:33:32;;;;;;;37.70;28.13;;;1.20;99.90;;;;;;5142130;27;20693;-78
2022/11/28 06:36:03;;;;;;;40.10;29.40;;;1.20;99.90;;;;;;5137986;27;20206;-80
2022/11/28 06:38:31;;;;;;;37.03;27.00;;;1.20;99.90;;;;;;5129498;27;20586;-77
2022/11/28 06:41:01;;;;;;;39.40;28.40;;;1.20;99.90;;;;;;5134051;27;20209;-79
2022/11/28 06:43:29;;;;;;;39.23;27.97;;;1.20;99.90;;;;;;5133892;27;20209;-80
2022/11/28 06:45:58;;;;;;;38.13;27.70;;;1.20;99.90;;;;;;5117250;27;20668;-80
2022/11/28 06:48:27;;;;;;;38.47;27.93;;;1.20;99.90;;;;;;5133199;27;20471;-74
2022/11/28 06:51:01;;;;;;;38.40;28.37;;;1.20;99.90;;;;;;5128398;27;20208;-79
2022/11/28 06:53:30;;;;;;;39.20;27.40;;;1.20;99.90;;;;;;5133008;27;20238;-79
2022/11/28 06:56:03;;;;;;;40.57;28.97;;;1.20;99.90;;;;;;5136217;27;20210;-78
2022/11/28 06:58:31;;;;;;;38.73;27.77;;;1.20;99.90;;;;;;5144501;27;20608;-79
2022/11/28 07:01:06;;;;;;;39.00;27.80;;;1.20;99.90;;;;;;5153756;27;20205;-77
2022/11/28 07:03:34;;;;;;;39.70;28.37;;;1.20;99.90;;;;;;5153996;27;20208;-78
2022/11/28 07:06:04;;;;;;;41.13;28.60;;;1.20;99.90;;;;;;5152772;27;20200;-78
2022/11/28 07:08:34;;;;;;;41.03;28.60;;;1.20;99.90;;;;;;5153575;27;20607;-77
2022/11/28 07:11:11;;;;;;;40.50;28.87;;;1.20;99.90;;;;;;5128054;27;20601;-80
2022/11/28 07:13:40;;;;;;;42.40;29.13;;;1.30;99.90;;;;;;5116027;27;20232;-76
2022/11/28 07:16:14;;;;;;;39.33;28.00;;;1.30;99.90;;;;;;5154233;27;20207;-76
2022/11/28 07:18:42;;;;;;;38.07;28.30;;;1.40;99.90;;;;;;5154842;27;20284;-77
2022/11/28 07:21:11;;;;;;;37.23;26.53;;;1.40;99.90;;;;;;5154481;27;20840;-77
2022/11/28 07:23:41;;;;;;;38.03;27.97;;;1.30;99.90;;;;;;5150251;27;20217;-76
2022/11/28 07:26:10;;;;;;;37.00;27.63;;;1.30;99.90;;;;;;5154302;27;20220;-78
2022/11/28 07:28:38;;;;;;;37.37;27.57;;;1.40;99.90;;;;;;5127694;27;20212;-81
2022/11/28 07:31:09;;;;;;;36.43;27.07;;;1.40;99.90;;;;;;5137574;28;20225;-81
2022/11/28 07:33:38;;;;;;;36.87;27.17;;;1.40;99.90;;;;;;5148404;27;20213;-74
2022/11/28 07:36:11;;;;;;;37.10;27.07;;;1.40;99.90;;;;;;5153524;27;20209;-78
2022/11/28 07:38:41;;;;;;;36.83;27.07;;;1.40;99.90;;;;;;5153481;27;20690;-79
2022/11/28 07:41:11;;;;;;;37.03;27.17;;;1.40;99.90;;;;;;5150553;27;20240;-81
2022/11/28 07:43:41;;;;;;;38.40;28.27;;;1.40;99.90;;;;;;5144635;27;20286;-79
2022/11/28 07:46:13;;;;;;;36.67;27.37;;;1.50;99.90;;;;;;5128493;28;20201;-79
2022/11/28 07:48:42;;;;;;;36.57;26.67;;;1.50;99.90;;;;;;5129768;27;20200;-75
2022/11/28 07:51:11;;;;;;;38.40;27.73;;;1.50;99.90;;;;;;5140324;27;20659;-79
2022/11/28 07:53:42;;;;;;;34.50;26.03;;;2.60;99.90;;;;;;5132663;28;20225;-80
2022/11/28 07:56:13;;;;;;;30.87;24.17;;;2.10;99.90;;;;;;5132396;28;20193;-78
2022/11/28 07:58:43;;;;;;;28.57;22.83;;;2.00;99.90;;;;;;5140834;27;20212;-79
2022/11/28 08:01:13;;;;;;;29.97;23.13;;;1.90;99.90;;;;;;5140378;27;20206;-81
2022/11/28 08:03:43;;;;;;;28.93;21.87;;;2.00;99.90;;;;;;5112305;28;20197;-81
2022/11/28 08:06:12;;;;;;;29.30;21.77;;;2.00;99.90;;;;;;5124290;28;20270;-75
2022/11/28 08:08:42;;;;;;;28.47;22.50;;;2.00;99.90;;;;;;5150630;27;20257;-75
2022/11/28 08:11:11;;;;;;;29.07;22.07;;;1.90;99.90;;;;;;5151496;27;20204;-75
2022/11/28 08:13:40;;;;;;;27.30;21.63;;;2.00;99.90;;;;;;5155151;27;20217;-78
2022/11/28 08:16:10;;;;;;;28.73;22.83;;;1.90;99.90;;;;;;5154011;27;20208;-75
2022/11/28 08:18:38;;;;;;;28.57;21.97;;;1.90;99.90;;;;;;5142015;27;20557;-74
2022/11/28 08:21:08;;;;;;;27.60;21.23;;;1.90;99.90;;;;;;5133830;28;20248;-79
2022/11/28 08:23:38;;;;;;;27.47;21.10;;;1.90;99.90;;;;;;5133526;27;20214;-76
2022/11/28 08:26:10;;;;;;;27.13;20.63;;;1.80;99.90;;;;;;5132918;27;20210;-75
2022/11/28 08:28:38;;;;;;;24.73;19.13;;;1.90;99.90;;;;;;5141222;27;20191;-73
2022/11/28 08:31:10;;;;;;;24.27;19.20;;;1.90;99.90;;;;;;5158720;27;20227;-75
2022/11/28 08:33:39;;;;;;;24.70;18.37;;;2.00;99.90;;;;;;5159239;27;20241;-74
2022/11/28 08:36:08;;;;;;;24.00;18.67;;;2.00;99.90;;;;;;5139675;27;20235;-76
2022/11/28 08:38:37;;;;;;;22.57;17.93;;;2.00;99.90;;;;;;5167480;27;20177;-78
2022/11/28 08:41:08;;;;;;;21.63;17.07;;;2.10;99.90;;;;;;5181234;27;20205;-78
2022/11/28 08:43:37;;;;;;;21.30;16.80;;;2.20;99.90;;;;;;5176912;27;20174;-79
2022/11/28 08:46:07;;;;;;;20.23;17.20;;;2.20;99.90;;;;;;5153002;27;20197;-74
2022/11/28 08:48:35;;;;;;;20.53;17.00;;;2.30;99.90;;;;;;5153192;27;20265;-74
2022/11/28 08:51:04;;;;;;;21.60;17.90;;;2.40;99.90;;;;;;5160513;27;20288;-75
2022/11/28 08:53:32;;;;;;;20.13;17.00;;;2.40;99.90;;;;;;5159083;27;20231;-75
2022/11/28 08:56:00;;;;;;;19.03;16.13;;;2.50;99.90;;;;;;5157066;27;20186;-80
2022/11/28 08:58:30;;;;;;;21.00;17.00;;;2.50;99.90;;;;;;5180955;27;20216;-79
2022/11/28 09:00:58;;;;;;;18.07;15.83;;;2.60;99.90;;;;;;5172120;27;20245;-79
2022/11/28 09:03:26;;;;;;;18.60;15.83;;;2.60;99.90;;;;;;5159779;27;20272;-76
2022/11/28 09:06:01;;;;;;;20.23;16.07;;;2.70;99.90;;;;;;5165615;27;20261;-79
2022/11/28 09:08:29;;;;;;;19.87;14.17;;;2.90;99.90;;;;;;5181121;27;20212;-77
2022/11/28 09:10:57;;;;;;;16.37;14.07;;;4.20;99.90;;;;;;5147613;27;20252;-80
2022/11/28 09:13:25;;;;;;;17.27;13.90;;;3.60;99.90;;;;;;5160146;27;20190;-80
2022/11/28 09:15:54;;;;;;;16.90;14.47;;;3.20;99.90;;;;;;5172192;27;20294;-75
2022/11/28 09:18:23;;;;;;;16.63;14.10;;;3.10;99.90;;;;;;5180790;27;20177;-80
2022/11/28 09:20:57;;;;;;;17.03;14.33;;;3.10;99.90;;;;;;5147074;27;20212;-77
2022/11/28 09:23:26;;;;;;;17.63;14.53;;;3.20;99.90;;;;;;5153598;27;20284;-76
2022/11/28 09:25:54;;;;;;;17.90;13.53;;;3.30;99.90;;;;;;5158294;27;20213;-78
2022/11/28 09:28:22;;;;;;;16.87;13.23;;;4.80;99.90;;;;;;5156613;27;20205;-75
2022/11/28 09:30:50;;;;;;;19.30;14.60;;;4.50;99.90;;;;;;5155083;27;20197;-75
2022/11/28 09:33:20;;;;;;;17.73;12.57;;;4.90;99.90;;;;;;5155769;27;20277;-77
2022/11/28 09:35:48;;;;;;;15.93;12.40;;;4.90;99.90;;;;;;5174610;27;20197;-76
2022/11/28 09:38:31;;;;;;;15.43;12.50;;;4.50;99.90;;;;;;5172835;27;20216;-78
2022/11/28 09:41:02;;;;;;;16.23;12.47;;;4.40;99.90;;;;;;5172982;27;20236;-74
2022/11/28 09:43:34;;;;;;;16.47;12.83;;;4.40;99.90;;;;;;5172376;27;20201;-76
2022/11/28 09:46:05;;;;;;;16.03;13.00;;;4.10;99.90;;;;;;5159786;27;20268;-80
2022/11/28 09:48:38;;;;;;;16.30;13.23;;;4.30;99.90;;;;;;5162049;27;20234;-80
2022/11/28 09:51:18;;;;;;;16.00;13.27;;;4.30;99.90;;;;;;5161568;27;20324;-78
2022/11/28 09:53:57;;;;;;;14.23;12.70;;;4.30;99.90;;;;;;5148378;27;20212;-79
2022/11/28 09:56:25;;;;;;;16.43;12.90;;;4.20;99.90;;;;;;5160919;27;20387;-77
2022/11/28 09:58:57;;;;;;;16.63;13.53;;;4.10;99.90;;;;;;5150868;27;20210;-78
2022/11/28 10:01:31;;;;;;;14.90;13.17;;;4.00;99.90;;;;;;5154026;27;20653;-77
2022/11/28 10:04:06;;;;;;;15.97;13.20;;;4.00;99.90;;;;;;5167376;27;20206;-77
2022/11/28 10:06:40;;;;;;;15.23;13.00;;;4.10;99.90;;;;;;5163770;27;20235;-77
2022/11/28 10:09:22;;;;;;;15.50;12.10;;;4.20;99.90;;;;;;5157625;27;20194;-76
2022/11/28 10:12:02;;;;;;;14.73;12.27;;;4.20;99.90;;;;;;5153412;27;20202;-77
2022/11/28 10:14:56;;;;;;;13.63;11.80;;;4.20;99.90;;;;;;5174503;27;20229;-79
2022/11/28 10:17:34;;;;;;;13.30;11.27;;;4.10;99.90;;;;;;5174321;27;20195;-79
2022/11/28 10:20:11;;;;;;;14.80;12.00;;;4.20;99.90;;;;;;5152789;27;20208;-76
2022/11/28 10:22:46;;;;;;;14.97;10.97;;;4.50;99.90;;;;;;5138995;27;20272;-78
2022/11/28 10:25:20;;;;;;;14.33;10.83;;;4.70;99.90;;;;;;5136308;27;20208;-78
2022/11/28 10:27:49;;;;;;;12.90;11.37;;;4.70;99.90;;;;;;5156887;27;20292;-79
2022/11/28 10:30:22;;;;;;;14.07;11.33;;;4.70;99.90;;;;;;5156338;27;20204;-76
2022/11/28 10:33:01;;;;;;;12.97;11.20;;;4.60;99.90;;;;;;5156647;27;20258;-76
2022/11/28 10:35:40;;;;;;;14.50;12.00;;;4.40;99.90;;;;;;5157066;27;20293;-75
2022/11/28 10:38:11;;;;;;;14.03;11.60;;;4.30;99.90;;;;;;5148366;27;20257;-74
2022/11/28 10:40:48;;;;;;;14.13;11.87;;;4.40;99.90;;;;;;5137532;27;20236;-77
2022/11/28 10:43:29;;;;;;;13.80;11.03;;;4.40;99.90;;;;;;5141462;27;20276;-75
2022/11/28 10:46:15;;;;;;;14.97;11.47;;;4.40;99.90;;;;;;5139439;27;20228;-76
2022/11/28 10:48:52;;;;;;;14.27;11.53;;;4.40;99.90;;;;;;5157018;27;20262;-78
2022/11/28 10:51:33;;;;;;;12.77;11.37;;;4.40;99.90;;;;;;5156182;27;20212;-75
2022/11/28 10:54:19;;;;;;;16.50;11.73;;;4.40;99.90;;;;;;5146367;27;20305;-76
2022/11/28 10:56:55;;;;;;;14.83;12.20;;;4.40;99.90;;;;;;5133998;27;20212;-76
2022/11/28 10:59:36;;;;;;;14.53;11.73;;;4.50;99.90;;;;;;5135294;27;20209;-74
2022/11/28 11:02:21;;;;;;;12.53;11.20;;;4.70;99.90;;;;;;5137901;27;20233;-77
2022/11/28 11:04:50;;;;;;;12.83;11.17;;;4.90;99.90;;;;;;5136270;27;20708;-76
2022/11/28 11:07:26;;;;;;;14.70;11.53;;;4.70;99.90;;;;;;5135325;27;20212;-75
2022/11/28 11:10:00;;;;;;;13.70;11.63;;;4.70;99.90;;;;;;5135511;27;20209;-76
2022/11/28 11:12:31;;;;;;;14.53;11.40;;;4.70;99.90;;;;;;5162515;27;20211;-76
2022/11/28 11:15:14;;;;;;;15.00;11.20;;;4.80;99.90;;;;;;5178296;27;20288;-75
2022/11/28 11:17:42;;;;;;;12.23;10.93;;;4.90;99.90;;;;;;5163339;27;20209;-75
2022/11/28 11:20:28;;;;;;;13.17;10.70;;;4.90;99.90;;;;;;5157280;27;20188;-76
2022/11/28 11:23:00;;;;;;;14.30;10.80;;;5.00;99.90;;;;;;5175044;27;20200;-75
2022/11/28 11:25:31;;;;;;;14.53;10.73;;;5.00;99.90;;;;;;5178880;27;20200;-78
2022/11/28 11:28:03;;;;;;;12.83;10.13;;;4.90;99.90;;;;;;5148066;27;20205;-75
2022/11/28 11:30:34;;;;;;;15.17;11.07;;;5.10;99.90;;;;;;5133350;28;20269;-75
2022/11/28 11:33:05;;;;;;;12.67;10.03;;;5.20;99.90;;;;;;5132913;28;20357;-76
2022/11/28 11:35:36;;;;;;;13.20;9.47;;;5.10;99.90;;;;;;5152209;27;20213;-77
2022/11/28 11:38:28;;;;;;;12.80;10.70;;;5.20;99.90;;;;;;5154103;27;20201;-79
2022/11/28 11:41:26;;;;;;;11.27;9.33;;;5.30;99.90;;;;;;5154515;27;20231;-78
2022/11/28 11:43:55;;;;;;;12.30;9.00;;;5.30;99.90;;;;;;5161034;27;20239;-76
2022/11/28 11:46:23;;;;;;;11.10;8.37;;;5.40;99.90;;;;;;5167040;27;20220;-78
2022/11/28 11:48:53;;;;;;;10.57;8.40;;;5.40;99.90;;;;;;5167663;27;20216;-77
2022/11/28 11:51:24;;;;;;;12.33;9.43;;;5.40;99.90;;;;;;5155065;27;20228;-77
2022/11/28 11:54:04;;;;;;;10.17;8.63;;;5.40;99.90;;;;;;5115430;28;20206;-76
2022/11/28 11:56:37;;;;;;;11.37;9.73;;;5.50;99.90;;;;;;5119464;28;20244;-78
2022/11/28 11:59:11;;;;;;;10.93;8.93;;;5.50;99.90;;;;;;5147074;27;20243;-79
2022/11/28 12:01:41;;;;;;;13.60;9.60;;;5.40;99.90;;;;;;5160312;27;20192;-77
2022/11/28 12:04:17;;;;;;;16.00;10.07;;;5.40;99.90;;;;;;5164562;27;20207;-77
2022/11/28 12:07:09;;;;;;;15.97;9.57;;;5.40;99.90;;;;;;5158552;27;20212;-76
2022/11/28 12:09:44;;;;;;;14.13;9.70;;;5.30;99.90;;;;;;5156048;27;20209;-77
2022/11/28 12:12:17;;;;;;;16.97;9.87;;;5.30;99.90;;;;;;5158475;27;20193;-77
2022/11/28 12:14:47;;;;;;;15.33;10.17;;;5.40;99.90;;;;;;5157455;27;20192;-76
2022/11/28 12:17:28;;;;;;;17.93;10.20;;;5.40;99.90;;;;;;5136448;27;20208;-77
2022/11/28 12:20:42;;;;;;;12.10;9.07;;;5.60;99.90;;;;;;5136953;27;20220;-77
2022/11/28 12:23:28;;;;;;;12.33;8.87;;;5.50;99.90;;;;;;5136933;27;20236;-76
2022/11/28 12:26:04;;;;;;;12.60;9.03;;;5.70;99.90;;;;;;5138984;27;20211;-77
2022/11/28 12:28:44;;;;;;;11.03;9.03;;;5.70;99.90;;;;;;5116518;28;20211;-75
2022/11/28 12:31:23;;;;;;;11.23;9.47;;;5.70;99.90;;;;;;5116591;28;20218;-77
2022/11/28 12:34:03;;;;;;;12.93;10.13;;;5.50;99.90;;;;;;5116283;28;20193;-76
2022/11/28 12:36:36;;;;;;;12.77;10.50;;;5.40;99.90;;;;;;5144971;27;20231;-77
2022/11/28 12:39:16;;;;;;;13.73;9.53;;;5.40;99.90;;;;;;5157838;27;20197;-76
2022/11/28 12:42:09;;;;;;;14.93;10.10;;;5.40;99.90;;;;;;5157581;27;20205;-76
2022/11/28 12:44:58;;;;;;;15.43;10.40;;;5.40;99.90;;;;;;5155310;27;20681;-76
2022/11/28 12:47:40;;;;;;;14.43;9.90;;;5.50;99.90;;;;;;5144246;27;20288;-77
2022/11/28 12:50:20;;;;;;;12.77;9.37;;;5.50;99.90;;;;;;5157347;27;20570;-74
2022/11/28 12:52:56;;;;;;;12.40;8.97;;;5.30;99.90;;;;;;5157426;27;20208;-76
2022/11/28 12:55:33;;;;;;;13.90;9.30;;;5.30;99.90;;;;;;5149246;27;20226;-77
2022/11/28 12:58:11;;;;;;;15.93;9.43;;;5.40;99.90;;;;;;5138164;27;20197;-79
2022/11/28 13:00:50;;;;;;;10.73;8.47;;;5.30;99.90;;;;;;5136880;27;20228;-76
2022/11/28 13:03:39;;;;;;;11.97;9.07;;;5.50;99.90;;;;;;5141115;27;20588;-74
2022/11/28 13:06:21;;;;;;;11.57;9.70;;;5.40;99.90;;;;;;5157132;27;20677;-75
2022/11/28 13:09:05;;;;;;;13.43;9.67;;;5.30;99.90;;;;;;5157123;27;20288;-76